Time;durP1;ratioP1;P1;durP2;ratioP2;P2;SDS_P1;SDS_P2;PMS_P1;PMS_P2;Temp;Humidity;BMP_temperature;BMP_pressure;BME280_temperature;BME280_humidity;BME280_pressure;Samples;Min_cycle;Max_cycle;Signal;HPM_P1;HPM_P2
2023/10/30 00:02:08;;;;;;;2.47;1.00;;;11.60;42.70;;;;;;5035573;28;20481;-55
2023/10/30 00:04:34;;;;;;;3.30;1.00;;;11.60;42.50;;;;;;5035280;28;21046;-53
2023/10/30 00:07:01;;;;;;;12.47;3.17;;;11.60;43.90;;;;;;5030237;28;20487;-55
2023/10/30 00:09:28;;;;;;;0.90;0.90;;;11.60;44.50;;;;;;5015915;28;20447;-54
2023/10/30 00:11:56;;;;;;;2.70;0.93;;;11.60;44.50;;;;;;5015583;28;20933;-58
2023/10/30 00:14:23;;;;;;;4.40;0.70;;;11.60;46.70;;;;;;5020445;28;20538;-54
2023/10/30 00:16:49;;;;;;;2.60;1.00;;;11.60;47.80;;;;;;5026550;28;20494;-54
2023/10/30 00:19:16;;;;;;;2.10;0.70;;;11.60;48.70;;;;;;5035589;28;20439;-53
2023/10/30 00:21:43;;;;;;;3.13;0.63;;;11.70;56.30;;;;;;5035417;28;20447;-53
2023/10/30 00:24:10;;;;;;;4.80;1.10;;;11.70;59.00;;;;;;5020002;28;20574;-53
2023/10/30 00:26:36;;;;;;;3.17;0.93;;;11.70;59.60;;;;;;5015533;28;20483;-54
2023/10/30 00:29:04;;;;;;;0.70;0.70;;;11.60;60.40;;;;;;5015452;28;20444;-54
2023/10/30 00:31:31;;;;;;;0.60;0.50;;;11.60;60.50;;;;;;5021806;28;20503;-53
2023/10/30 00:33:57;;;;;;;1.73;0.80;;;11.70;67.50;;;;;;5033867;28;20458;-55
2023/10/30 00:36:24;;;;;;;4.70;1.10;;;11.60;68.20;;;;;;5035180;28;20467;-53
2023/10/30 00:38:50;;;;;;;3.17;0.93;;;11.70;71.40;;;;;;5026030;28;20503;-54
2023/10/30 00:41:17;;;;;;;1.87;1.00;;;11.70;73.20;;;;;;5015623;28;20443;-54
2023/10/30 00:43:43;;;;;;;1.67;0.70;;;11.70;75.30;;;;;;5015675;28;20518;-53
2023/10/30 00:46:11;;;;;;;2.87;0.70;;;11.70;78.00;;;;;;5013922;28;20515;-53
2023/10/30 00:48:38;;;;;;;2.60;0.80;;;11.70;79.40;;;;;;5023631;28;20498;-53
2023/10/30 00:51:05;;;;;;;1.40;0.60;;;11.70;82.20;;;;;;5034898;28;20470;-55
2023/10/30 00:53:31;;;;;;;1.90;1.07;;;11.80;85.60;;;;;;5030768;28;20493;-54
2023/10/30 00:55:58;;;;;;;1.40;0.80;;;11.80;85.60;;;;;;5015058;28;20480;-54
2023/10/30 00:58:25;;;;;;;1.73;0.80;;;11.80;87.70;;;;;;5014783;28;20447;-54
2023/10/30 01:00:51;;;;;;;7.70;0.87;;;11.80;90.90;;;;;;5015344;28;20480;-54
2023/10/30 01:03:23;;;;;;;3.70;1.13;;;11.80;92.50;;;;;;5021325;28;20550;-54
2023/10/30 01:05:56;;;;;;;2.70;0.90;;;11.80;94.80;;;;;;5032169;28;20573;-54
2023/10/30 01:08:23;;;;;;;2.10;1.23;;;11.80;96.60;;;;;;5034517;28;20446;-53
2023/10/30 01:10:49;;;;;;;1.20;0.80;;;11.90;99.90;;;;;;5020739;28;20471;-54
2023/10/30 01:13:16;;;;;;;2.50;1.20;;;12.00;99.90;;;;;;5014408;28;20506;-55
2023/10/30 01:15:42;;;;;;;2.40;1.30;;;12.00;99.90;;;;;;5014777;28;20900;-55
2023/10/30 01:18:09;;;;;;;5.10;1.97;;;11.90;99.90;;;;;;5013627;28;21027;-54
2023/10/30 01:20:40;;;;;;;2.20;1.77;;;11.90;99.90;;;;;;5021812;28;20478;-55
2023/10/30 01:23:06;;;;;;;4.80;2.70;;;12.00;99.90;;;;;;5034254;28;20471;-54
2023/10/30 01:25:33;;;;;;;3.67;2.07;;;12.00;99.90;;;;;;5033878;28;20491;-53
2023/10/30 01:28:00;;;;;;;15.73;2.57;;;12.00;99.90;;;;;;5015739;28;20467;-53
2023/10/30 01:30:26;;;;;;;5.50;3.40;;;12.00;99.90;;;;;;5014300;28;20482;-55
2023/10/30 01:32:53;;;;;;;1.93;1.60;;;12.00;99.90;;;;;;5011473;28;20491;-53
2023/10/30 01:35:19;;;;;;;3.47;1.07;;;12.00;99.90;;;;;;5005952;28;20467;-55
2023/10/30 01:37:47;;;;;;;12.47;1.37;;;12.00;99.90;;;;;;5030417;28;20463;-54
2023/10/30 01:40:15;;;;;;;5.17;1.20;;;12.10;99.90;;;;;;5033650;28;20439;-55
2023/10/30 01:42:42;;;;;;;3.23;0.60;;;12.00;99.90;;;;;;5033705;28;20478;-54
2023/10/30 01:45:09;;;;;;;3.40;1.00;;;12.00;99.90;;;;;;5034044;28;20450;-54
2023/10/30 01:47:37;;;;;;;1.50;0.60;;;12.00;99.90;;;;;;5033701;28;20479;-52
2023/10/30 01:50:05;;;;;;;2.80;1.50;;;12.00;99.90;;;;;;5028431;28;20590;-55
2023/10/30 01:52:32;;;;;;;2.63;1.10;;;12.00;99.90;;;;;;5021588;28;20818;-55
2023/10/30 01:55:00;;;;;;;0.90;0.63;;;12.00;99.90;;;;;;5014124;28;20522;-55
2023/10/30 01:57:28;;;;;;;3.07;0.90;;;12.00;99.90;;;;;;5013959;28;20467;-54
2023/10/30 01:59:56;;;;;;;3.43;1.20;;;12.00;99.90;;;;;;5013942;28;20451;-54
2023/10/30 02:02:24;;;;;;;2.13;1.23;;;12.00;99.90;;;;;;5014030;28;20440;-54
2023/10/30 02:04:51;;;;;;;3.80;1.73;;;12.00;99.90;;;;;;5013314;28;20506;-54
2023/10/30 02:07:17;;;;;;;3.70;2.23;;;12.00;99.90;;;;;;5011176;28;20519;-53
2023/10/30 02:09:45;;;;;;;5.40;2.03;;;12.00;99.90;;;;;;5021720;28;20443;-53
2023/10/30 02:12:13;;;;;;;4.70;1.67;;;12.00;99.90;;;;;;5033291;28;21001;-54
2023/10/30 02:14:39;;;;;;;4.17;1.67;;;12.00;99.90;;;;;;5033242;28;20529;-54
2023/10/30 02:17:06;;;;;;;5.20;2.10;;;12.00;99.90;;;;;;5033288;28;20470;-54
2023/10/30 02:19:32;;;;;;;8.97;2.63;;;12.00;99.90;;;;;;5033181;28;20485;-54
2023/10/30 02:21:59;;;;;;;11.67;3.37;;;12.00;99.90;;;;;;5025805;28;20491;-54
2023/10/30 02:24:25;;;;;;;8.27;3.90;;;12.00;99.90;;;;;;5017884;28;20482;-55
2023/10/30 02:26:53;;;;;;;6.47;2.63;;;12.00;99.90;;;;;;5015251;28;20511;-54
2023/10/30 02:29:20;;;;;;;6.43;2.83;;;12.00;99.90;;;;;;5013469;28;20874;-53
2023/10/30 02:31:47;;;;;;;4.47;2.23;;;12.00;99.90;;;;;;5013364;28;20590;-54
2023/10/30 02:34:14;;;;;;;7.00;1.57;;;12.00;99.90;;;;;;5013043;28;20470;-53
2023/10/30 02:36:41;;;;;;;4.73;2.13;;;12.00;99.90;;;;;;5012231;28;20482;-53
2023/10/30 02:39:08;;;;;;;9.00;1.87;;;11.90;99.90;;;;;;5013537;28;20443;-53
2023/10/30 02:41:35;;;;;;;2.10;1.20;;;11.90;99.90;;;;;;5018848;28;20467;-54
2023/10/30 02:44:03;;;;;;;3.67;1.67;;;11.90;99.90;;;;;;5014391;28;20468;-53
2023/10/30 02:46:29;;;;;;;2.70;1.70;;;11.90;99.90;;;;;;5013064;28;20519;-54
2023/10/30 02:48:56;;;;;;;2.70;1.33;;;11.90;99.90;;;;;;5012975;28;20506;-53
2023/10/30 02:51:23;;;;;;;3.80;1.30;;;11.80;99.90;;;;;;5013223;28;20470;-53
2023/10/30 02:53:49;;;;;;;2.67;1.30;;;11.80;99.90;;;;;;5011967;28;20483;-53
2023/10/30 02:56:22;;;;;;;5.33;1.07;;;11.80;99.90;;;;;;5016130;28;20493;-54
2023/10/30 02:58:49;;;;;;;2.03;1.00;;;11.80;99.90;;;;;;5021089;28;20482;-54
2023/10/30 03:01:16;;;;;;;7.03;1.10;;;11.80;99.90;;;;;;5032924;28;20496;-54
2023/10/30 03:03:43;;;;;;;3.30;1.27;;;11.80;99.90;;;;;;5032598;28;20482;-55
2023/10/30 03:06:09;;;;;;;5.43;1.07;;;11.80;99.90;;;;;;5032605;28;20447;-54
2023/10/30 03:08:36;;;;;;;4.40;1.20;;;11.80;99.90;;;;;;5028872;28;20470;-54
2023/10/30 03:11:03;;;;;;;1.90;1.10;;;11.80;99.90;;;;;;5012650;28;20526;-54
2023/10/30 03:13:29;;;;;;;1.43;0.90;;;11.80;99.90;;;;;;5017908;28;20834;-53
2023/10/30 03:15:56;;;;;;;3.13;0.90;;;11.70;99.90;;;;;;5012126;28;20444;-53
2023/10/30 03:18:24;;;;;;;3.17;1.37;;;11.70;99.90;;;;;;5013004;28;20448;-53
2023/10/30 03:20:51;;;;;;;7.83;1.17;;;11.60;99.90;;;;;;5012809;28;21008;-53
2023/10/30 03:23:20;;;;;;;2.90;1.07;;;11.50;99.90;;;;;;5013420;28;20886;-53
2023/10/30 03:25:46;;;;;;;2.30;0.90;;;11.60;99.90;;;;;;5011278;28;20494;-55
2023/10/30 03:28:13;;;;;;;10.33;1.17;;;11.50;99.90;;;;;;5019399;28;20483;-55
2023/10/30 03:30:39;;;;;;;4.60;1.03;;;11.60;99.90;;;;;;5012538;28;20456;-55
2023/10/30 03:33:06;;;;;;;1.90;1.17;;;11.50;99.90;;;;;;5013019;28;20985;-54
2023/10/30 03:35:37;;;;;;;1.80;1.50;;;11.60;99.90;;;;;;5012292;28;20876;-54
2023/10/30 03:38:04;;;;;;;2.40;1.37;;;11.50;99.90;;;;;;5013013;28;20435;-54
2023/10/30 03:40:31;;;;;;;2.60;0.80;;;11.50;99.90;;;;;;5011695;28;20440;-54
2023/10/30 03:42:57;;;;;;;7.83;2.10;;;11.50;99.80;;;;;;5014017;28;20530;-54
2023/10/30 03:45:24;;;;;;;6.20;1.10;;;11.40;98.30;;;;;;5032604;28;20442;-54
2023/10/30 03:47:50;;;;;;;7.77;1.80;;;11.50;98.50;;;;;;5033221;28;20537;-54
2023/10/30 03:50:17;;;;;;;2.80;0.73;;;11.50;99.10;;;;;;5033848;28;20446;-55
2023/10/30 03:52:45;;;;;;;9.20;1.27;;;11.50;99.20;;;;;;5033484;28;20439;-55
2023/10/30 03:55:12;;;;;;;1.27;0.77;;;11.40;98.60;;;;;;5033886;28;20447;-55
2023/10/30 03:57:40;;;;;;;5.77;1.20;;;11.40;98.70;;;;;;5025598;28;20534;-56
2023/10/30 04:00:08;;;;;;;1.63;0.90;;;11.50;98.60;;;;;;5023547;28;20826;-54
2023/10/30 04:02:35;;;;;;;4.00;0.87;;;11.40;96.30;;;;;;5014982;28;20534;-54
2023/10/30 04:05:01;;;;;;;3.03;1.00;;;11.40;98.70;;;;;;5026312;22;20569;-55
2023/10/30 04:07:28;;;;;;;1.57;0.80;;;11.40;98.60;;;;;;5011233;28;20542;-54
2023/10/30 04:09:56;;;;;;;1.63;1.00;;;11.40;96.20;;;;;;5011909;28;20443;-54
2023/10/30 04:12:22;;;;;;;2.27;1.00;;;11.40;94.00;;;;;;5011495;28;20859;-55
2023/10/30 04:14:49;;;;;;;2.20;0.93;;;11.30;94.50;;;;;;5009411;28;20488;-54
2023/10/30 04:17:16;;;;;;;4.87;0.97;;;11.30;93.80;;;;;;5011374;28;20436;-55
2023/10/30 04:19:43;;;;;;;2.30;0.90;;;11.30;91.30;;;;;;5011442;28;20447;-54
2023/10/30 04:22:09;;;;;;;6.30;1.20;;;11.30;89.20;;;;;;5011343;28;20498;-55
2023/10/30 04:24:36;;;;;;;2.87;1.60;;;11.20;90.00;;;;;;5011514;28;20460;-54
2023/10/30 04:27:04;;;;;;;5.70;1.00;;;11.20;88.10;;;;;;5011728;28;20534;-54
2023/10/30 04:29:30;;;;;;;1.70;1.03;;;11.20;85.10;;;;;;5009901;28;20540;-54
2023/10/30 04:31:57;;;;;;;2.77;0.83;;;11.20;83.80;;;;;;5001554;28;20459;-55
2023/10/30 04:34:24;;;;;;;5.00;1.10;;;11.20;82.30;;;;;;5014971;28;20579;-54
2023/10/30 04:36:50;;;;;;;4.50;1.27;;;11.20;81.80;;;;;;5015179;28;20498;-54
2023/10/30 04:39:17;;;;;;;2.67;1.10;;;11.20;82.00;;;;;;5015113;28;20493;-55
2023/10/30 04:41:43;;;;;;;3.17;1.20;;;11.20;81.30;;;;;;5015065;28;20497;-54
2023/10/30 04:44:11;;;;;;;3.50;1.27;;;11.10;82.20;;;;;;5014947;28;20504;-54
2023/10/30 04:46:38;;;;;;;1.30;1.00;;;11.10;81.20;;;;;;5014014;28;20533;-54
2023/10/30 04:49:05;;;;;;;3.73;1.10;;;11.10;79.90;;;;;;5013777;28;20470;-55
2023/10/30 04:51:31;;;;;;;3.40;1.40;;;11.10;76.30;;;;;;5014778;28;20443;-54
2023/10/30 04:53:58;;;;;;;2.90;0.90;;;11.10;77.10;;;;;;5014838;28;20459;-55
2023/10/30 04:56:24;;;;;;;2.87;1.10;;;11.00;75.40;;;;;;5014630;28;20448;-55
2023/10/30 04:58:51;;;;;;;3.30;1.07;;;11.00;72.10;;;;;;5015031;28;20440;-54
2023/10/30 05:01:19;;;;;;;6.13;1.10;;;11.00;70.50;;;;;;5013506;28;20541;-54
2023/10/30 05:03:45;;;;;;;4.83;1.13;;;11.00;70.20;;;;;;5014253;28;20479;-54
2023/10/30 05:06:13;;;;;;;2.23;1.60;;;11.00;69.20;;;;;;5012090;28;20464;-53
2023/10/30 05:08:39;;;;;;;2.23;1.10;;;11.00;68.40;;;;;;5013928;28;20523;-55
2023/10/30 05:11:06;;;;;;;5.17;1.43;;;11.00;67.30;;;;;;5014451;28;20952;-54
2023/10/30 05:13:32;;;;;;;8.57;1.10;;;11.00;67.80;;;;;;5014324;28;20463;-55
2023/10/30 05:15:59;;;;;;;6.57;3.00;;;11.00;66.60;;;;;;5014532;28;20447;-54
2023/10/30 05:18:29;;;;;;;2.70;1.10;;;11.00;66.10;;;;;;5007716;28;20535;-55
2023/10/30 05:20:56;;;;;;;5.60;1.20;;;11.00;65.50;;;;;;4994703;28;20539;-54
2023/10/30 05:23:24;;;;;;;2.80;1.23;;;11.00;65.10;;;;;;4994514;28;20515;-55
2023/10/30 05:25:50;;;;;;;2.10;1.37;;;11.00;66.30;;;;;;5010933;28;20463;-55
2023/10/30 05:28:17;;;;;;;12.83;1.77;;;11.00;64.10;;;;;;5013862;28;20538;-55
2023/10/30 05:30:44;;;;;;;1.70;1.00;;;11.00;65.60;;;;;;5013949;28;20439;-55
2023/10/30 05:33:10;;;;;;;4.30;1.43;;;11.00;66.00;;;;;;5014171;28;20498;-55
2023/10/30 05:35:38;;;;;;;6.77;1.43;;;11.00;66.00;;;;;;5013210;28;20490;-55
2023/10/30 05:38:05;;;;;;;2.60;1.17;;;11.00;65.30;;;;;;5013859;28;20435;-55
2023/10/30 05:40:31;;;;;;;3.90;1.13;;;11.00;65.30;;;;;;5013089;28;20494;-55
2023/10/30 05:42:58;;;;;;;2.23;1.57;;;11.10;64.90;;;;;;5012427;28;20479;-55
2023/10/30 05:45:25;;;;;;;2.83;1.43;;;11.10;65.20;;;;;;5013485;28;20436;-54
2023/10/30 05:47:51;;;;;;;4.30;1.10;;;11.10;65.40;;;;;;5012621;28;20490;-55
2023/10/30 05:50:18;;;;;;;10.67;1.20;;;11.10;66.50;;;;;;5013537;28;20510;-55
2023/10/30 05:52:46;;;;;;;7.13;1.43;;;11.10;68.10;;;;;;5013538;28;20975;-55
2023/10/30 05:55:12;;;;;;;4.00;1.30;;;11.10;68.50;;;;;;5013678;28;20463;-55
2023/10/30 05:57:41;;;;;;;4.83;1.00;;;11.10;67.10;;;;;;5012481;28;20464;-55
2023/10/30 06:00:09;;;;;;;3.73;1.20;;;11.20;67.50;;;;;;5013257;28;20452;-55
2023/10/30 06:02:35;;;;;;;6.60;1.30;;;11.20;68.40;;;;;;5013546;28;20454;-55
2023/10/30 06:05:04;;;;;;;4.90;1.50;;;11.20;69.70;;;;;;5012265;28;20491;-55
2023/10/30 06:07:31;;;;;;;3.30;1.67;;;11.20;70.90;;;;;;5013186;28;20480;-55
2023/10/30 06:09:59;;;;;;;3.00;2.20;;;11.20;71.60;;;;;;5013430;28;20474;-55
2023/10/30 06:12:25;;;;;;;3.20;1.60;;;11.20;72.90;;;;;;5013212;28;20440;-55
2023/10/30 06:14:52;;;;;;;8.43;1.60;;;11.30;72.90;;;;;;5012335;28;20491;-56
2023/10/30 06:17:18;;;;;;;5.93;1.60;;;11.30;74.80;;;;;;5013260;28;20525;-55
2023/10/30 06:19:45;;;;;;;4.90;0.97;;;11.20;74.80;;;;;;5012449;28;20444;-55
2023/10/30 06:22:12;;;;;;;1.73;1.40;;;11.30;74.60;;;;;;4993545;28;20445;-55
2023/10/30 06:24:38;;;;;;;5.40;1.10;;;11.30;74.70;;;;;;4993420;28;20465;-54
2023/10/30 06:27:06;;;;;;;6.57;1.43;;;11.30;73.80;;;;;;4993064;28;20490;-55
2023/10/30 06:29:33;;;;;;;4.50;1.60;;;11.30;73.00;;;;;;4993565;28;20452;-54
2023/10/30 06:32:00;;;;;;;2.90;1.20;;;11.30;72.90;;;;;;5000162;28;20454;-54
2023/10/30 06:34:26;;;;;;;3.50;1.40;;;11.30;74.10;;;;;;5013132;28;20224;-54
2023/10/30 06:36:53;;;;;;;2.80;1.40;;;11.40;74.90;;;;;;5011112;28;20823;-53
2023/10/30 06:39:20;;;;;;;4.30;1.60;;;11.40;75.10;;;;;;4993358;28;20804;-54
2023/10/30 06:41:48;;;;;;;2.83;1.40;;;11.30;75.90;;;;;;4992990;28;20479;-54
2023/10/30 06:44:16;;;;;;;3.00;1.33;;;11.40;76.40;;;;;;4993004;28;20563;-54
2023/10/30 06:46:44;;;;;;;5.40;1.60;;;11.50;78.00;;;;;;4993094;28;20437;-54
2023/10/30 06:49:10;;;;;;;6.80;1.20;;;11.50;78.60;;;;;;5009346;28;20959;-55
2023/10/30 06:51:37;;;;;;;4.53;1.70;;;11.50;78.70;;;;;;5012366;28;20514;-54
2023/10/30 06:54:04;;;;;;;3.43;1.30;;;11.50;80.10;;;;;;5011799;28;20546;-54
2023/10/30 06:56:30;;;;;;;5.70;1.53;;;11.50;80.60;;;;;;5012568;28;20497;-54
2023/10/30 06:58:57;;;;;;;6.53;1.83;;;11.50;82.10;;;;;;5012736;28;20436;-54
2023/10/30 07:01:24;;;;;;;6.50;1.50;;;11.60;83.00;;;;;;5012547;28;20477;-55
2023/10/30 07:03:51;;;;;;;4.83;1.50;;;11.60;82.80;;;;;;5011059;28;20554;-53
2023/10/30 07:06:18;;;;;;;4.67;2.83;;;11.60;82.30;;;;;;5003956;28;20440;-54
2023/10/30 07:08:44;;;;;;;4.70;1.77;;;11.60;83.40;;;;;;5012273;28;20836;-54
2023/10/30 07:11:11;;;;;;;5.07;1.40;;;11.70;86.60;;;;;;5011887;28;20706;-54
2023/10/30 07:13:37;;;;;;;4.23;1.33;;;11.70;88.40;;;;;;5012103;28;21023;-54
2023/10/30 07:16:07;;;;;;;8.73;2.77;;;11.80;88.90;;;;;;5012284;28;20871;-54
2023/10/30 07:18:35;;;;;;;7.20;1.40;;;11.80;89.60;;;;;;5012155;28;20475;-54
2023/10/30 07:21:01;;;;;;;4.20;1.63;;;11.80;92.40;;;;;;5011042;28;20464;-54
2023/10/30 07:23:28;;;;;;;1.63;1.00;;;11.90;94.70;;;;;;5011858;28;20555;-53
2023/10/30 07:25:55;;;;;;;3.27;1.87;;;12.00;95.50;;;;;;5012229;28;20510;-54
2023/10/30 07:28:21;;;;;;;2.50;1.00;;;12.00;97.20;;;;;;4995716;28;21322;-54
2023/10/30 07:30:48;;;;;;;6.80;1.73;;;12.10;99.90;;;;;;4992567;28;20440;-54
2023/10/30 07:33:14;;;;;;;3.23;1.67;;;12.20;99.90;;;;;;4992341;28;20448;-54
2023/10/30 07:35:42;;;;;;;6.63;1.50;;;12.10;99.90;;;;;;4992146;28;20444;-54
2023/10/30 07:38:09;;;;;;;2.80;1.60;;;12.20;99.90;;;;;;5010294;28;20518;-54
2023/10/30 07:40:35;;;;;;;4.53;1.73;;;12.10;99.90;;;;;;5012062;28;20469;-54
2023/10/30 07:43:02;;;;;;;7.37;1.83;;;12.20;99.90;;;;;;5010558;28;20514;-54
2023/10/30 07:45:28;;;;;;;3.60;1.30;;;12.20;99.90;;;;;;5012059;28;20517;-53
2023/10/30 07:47:55;;;;;;;5.47;1.60;;;12.10;99.90;;;;;;5012208;28;20476;-53
2023/10/30 07:50:22;;;;;;;2.30;1.27;;;12.20;99.90;;;;;;5011748;28;20443;-53
2023/10/30 07:52:51;;;;;;;7.13;2.07;;;12.20;99.90;;;;;;5011073;28;20474;-53
2023/10/30 07:55:17;;;;;;;4.37;1.43;;;12.20;99.90;;;;;;5011545;28;20839;-53
2023/10/30 07:57:44;;;;;;;4.33;1.43;;;12.20;99.90;;;;;;5011789;28;20991;-54
2023/10/30 08:00:12;;;;;;;5.70;1.70;;;12.20;99.90;;;;;;5009249;28;20478;-54
2023/10/30 08:02:39;;;;;;;2.60;1.37;;;12.20;99.90;;;;;;5011942;28;20957;-55
2023/10/30 08:05:07;;;;;;;2.70;1.33;;;12.20;99.90;;;;;;5013720;28;20507;-54
2023/10/30 08:07:35;;;;;;;3.53;1.23;;;12.20;99.90;;;;;;5015283;28;20929;-54
2023/10/30 08:10:05;;;;;;;13.10;5.20;;;12.30;99.90;;;;;;5015531;28;20459;-54
2023/10/30 08:12:31;;;;;;;6.90;1.13;;;12.30;99.90;;;;;;5015437;28;20494;-54
2023/10/30 08:14:59;;;;;;;2.93;1.20;;;12.30;99.90;;;;;;5014297;28;20902;-54
2023/10/30 08:17:25;;;;;;;7.13;1.67;;;12.30;99.90;;;;;;5015109;28;20483;-54
2023/10/30 08:19:52;;;;;;;8.33;1.40;;;12.30;99.90;;;;;;5014306;28;20549;-56
2023/10/30 08:22:19;;;;;;;5.07;1.27;;;12.30;99.90;;;;;;5015072;28;21012;-56
2023/10/30 08:24:45;;;;;;;4.93;1.50;;;12.30;99.90;;;;;;5015324;28;20466;-56
2023/10/30 08:27:13;;;;;;;6.37;1.70;;;12.40;99.90;;;;;;5014936;28;20447;-56
2023/10/30 08:29:40;;;;;;;6.43;1.60;;;12.40;99.90;;;;;;5013719;28;20863;-55
2023/10/30 08:32:07;;;;;;;2.07;1.20;;;12.50;99.90;;;;;;5014541;28;20447;-55
2023/10/30 08:34:33;;;;;;;4.87;1.20;;;12.50;99.90;;;;;;5013932;28;20533;-56
2023/10/30 08:37:00;;;;;;;5.77;1.67;;;12.60;99.90;;;;;;5014620;28;20474;-57
2023/10/30 08:39:27;;;;;;;3.77;1.17;;;12.60;99.90;;;;;;5014948;28;20471;-56
2023/10/30 08:41:53;;;;;;;2.67;1.43;;;12.60;99.90;;;;;;5014796;28;20478;-56
2023/10/30 08:44:21;;;;;;;6.50;1.87;;;12.70;99.90;;;;;;5014791;28;20517;-54
2023/10/30 08:46:48;;;;;;;4.70;1.30;;;12.70;99.90;;;;;;5013318;28;20471;-56
2023/10/30 08:49:14;;;;;;;4.27;2.00;;;12.70;99.90;;;;;;5014549;28;20483;-55
2023/10/30 08:51:41;;;;;;;9.73;2.20;;;12.70;99.90;;;;;;5014538;28;20821;-55
2023/10/30 08:54:08;;;;;;;2.33;1.47;;;12.70;99.90;;;;;;5013089;28;20487;-56
2023/10/30 08:56:35;;;;;;;4.87;2.17;;;12.70;99.90;;;;;;5014410;28;20440;-56
2023/10/30 08:59:03;;;;;;;10.87;2.07;;;12.70;99.90;;;;;;5014471;28;20439;-56
2023/10/30 09:01:32;;;;;;;10.30;2.37;;;12.80;99.90;;;;;;5013215;28;20957;-55
2023/10/30 09:03:59;;;;;;;5.07;2.27;;;12.80;99.90;;;;;;5014065;28;21005;-57
2023/10/30 09:06:27;;;;;;;8.87;2.10;;;12.80;99.90;;;;;;5014390;28;20559;-56
2023/10/30 09:08:53;;;;;;;9.20;1.77;;;12.80;99.90;;;;;;5014443;28;20494;-57
2023/10/30 09:11:20;;;;;;;6.83;1.50;;;12.80;99.90;;;;;;5012606;28;20475;-56
2023/10/30 09:13:47;;;;;;;4.43;2.10;;;12.90;99.90;;;;;;5012907;28;20471;-56
2023/10/30 09:16:14;;;;;;;4.57;1.63;;;12.90;99.90;;;;;;5013903;28;20498;-55
2023/10/30 09:18:41;;;;;;;6.17;1.30;;;12.90;99.90;;;;;;5012952;28;20463;-56
2023/10/30 09:21:08;;;;;;;5.23;1.60;;;12.90;99.90;;;;;;5014042;28;20450;-57
2023/10/30 09:23:35;;;;;;;5.47;1.30;;;13.00;99.90;;;;;;5014006;28;20867;-56
2023/10/30 09:26:03;;;;;;;5.00;1.57;;;12.90;99.90;;;;;;5013770;28;20447;-55
2023/10/30 09:28:29;;;;;;;5.33;1.57;;;13.00;99.90;;;;;;5012561;28;21020;-55
2023/10/30 09:30:56;;;;;;;5.77;1.60;;;13.00;99.90;;;;;;5011502;28;20530;-56
2023/10/30 09:33:23;;;;;;;6.17;1.43;;;13.10;99.90;;;;;;5005803;28;20570;-54
2023/10/30 09:35:50;;;;;;;7.70;1.90;;;13.10;99.90;;;;;;5013870;28;20513;-55
2023/10/30 09:38:17;;;;;;;2.27;1.23;;;13.20;99.90;;;;;;5013719;28;20444;-56
2023/10/30 09:40:44;;;;;;;4.47;1.20;;;13.20;99.90;;;;;;5013768;28;20807;-55
2023/10/30 09:43:11;;;;;;;7.90;2.00;;;13.30;99.90;;;;;;5012568;28;20462;-56
2023/10/30 09:45:39;;;;;;;11.77;2.00;;;13.30;99.90;;;;;;5012966;28;20967;-56
2023/10/30 09:48:07;;;;;;;6.63;1.90;;;13.40;99.90;;;;;;5011910;28;20455;-56
2023/10/30 09:50:35;;;;;;;9.10;2.20;;;13.40;99.90;;;;;;5013678;28;20443;-55
2023/10/30 09:53:04;;;;;;;9.67;3.10;;;13.40;99.90;;;;;;5013392;28;20443;-56
2023/10/30 09:55:31;;;;;;;7.03;1.90;;;13.50;99.90;;;;;;5013230;28;20471;-55
2023/10/30 09:57:57;;;;;;;3.80;1.07;;;13.50;99.90;;;;;;5013407;28;21019;-56
2023/10/30 10:00:24;;;;;;;12.83;2.13;;;13.60;99.90;;;;;;5005540;28;20537;-56
2023/10/30 10:02:50;;;;;;;14.37;2.23;;;13.70;99.90;;;;;;5011977;28;20517;-56
2023/10/30 10:05:18;;;;;;;5.63;1.90;;;13.70;99.90;;;;;;5040388;22;20980;-55
2023/10/30 10:07:44;;;;;;;5.63;1.80;;;14.00;99.90;;;;;;5033037;28;20439;-56
2023/10/30 10:10:14;;;;;;;11.70;1.47;;;14.00;99.90;;;;;;5033219;28;20895;-56
2023/10/30 10:12:41;;;;;;;8.10;1.60;;;14.00;99.90;;;;;;5033141;28;20824;-56
2023/10/30 10:15:08;;;;;;;1.90;1.63;;;13.90;99.90;;;;;;5039695;28;20883;-56
2023/10/30 10:17:42;;;;;;;9.97;1.93;;;14.00;99.90;;;;;;5038690;28;20539;-56
2023/10/30 10:20:10;;;;;;;6.87;2.40;;;14.10;99.90;;;;;;5036592;28;20533;-56
2023/10/30 10:22:37;;;;;;;8.80;1.70;;;14.10;99.90;;;;;;5047646;28;20443;-56
2023/10/30 10:25:07;;;;;;;6.27;1.70;;;14.10;99.90;;;;;;5041150;28;20461;-56
2023/10/30 10:27:35;;;;;;;4.33;1.80;;;14.30;99.90;;;;;;5032934;28;20936;-56
2023/10/30 10:30:03;;;;;;;4.53;1.73;;;14.30;99.90;;;;;;5032717;28;20987;-55
2023/10/30 10:32:30;;;;;;;6.73;1.57;;;14.40;99.90;;;;;;5043943;28;20548;-55
2023/10/30 10:34:57;;;;;;;10.90;1.67;;;14.40;99.90;;;;;;5035114;28;20557;-56
2023/10/30 10:37:24;;;;;;;10.53;1.80;;;14.40;99.90;;;;;;5024482;28;20469;-55
2023/10/30 10:39:53;;;;;;;5.07;1.60;;;14.50;99.90;;;;;;5032859;28;20493;-55
2023/10/30 10:42:21;;;;;;;5.73;1.30;;;14.60;99.90;;;;;;5041057;28;20547;-55
2023/10/30 10:44:51;;;;;;;3.83;1.50;;;14.60;99.90;;;;;;5039366;28;20466;-55
2023/10/30 10:47:18;;;;;;;6.70;1.50;;;14.70;99.90;;;;;;5047456;28;20478;-56
2023/10/30 10:49:45;;;;;;;5.30;1.80;;;14.60;99.90;;;;;;5040379;28;20475;-56
2023/10/30 10:52:14;;;;;;;11.60;2.27;;;14.50;99.90;;;;;;5039577;28;20974;-55
2023/10/30 10:54:47;;;;;;;6.73;2.30;;;14.90;99.90;;;;;;5032741;28;20890;-55
2023/10/30 10:57:17;;;;;;;11.13;2.13;;;15.00;99.90;;;;;;5034380;28;20449;-56
2023/10/30 10:59:46;;;;;;;5.00;1.70;;;15.10;99.90;;;;;;5038144;28;20435;-55
2023/10/30 11:02:20;;;;;;;5.30;1.60;;;15.20;99.90;;;;;;5032812;28;20492;-55
2023/10/30 11:04:48;;;;;;;4.63;1.37;;;15.20;99.90;;;;;;5031227;28;20466;-55
2023/10/30 11:07:20;;;;;;;5.30;1.60;;;15.20;99.90;;;;;;5041625;28;20826;-56
2023/10/30 11:09:50;;;;;;;7.03;1.60;;;15.30;99.90;;;;;;5037348;28;20538;-55
2023/10/30 11:12:32;;;;;;;6.20;1.60;;;15.30;99.90;;;;;;5032058;28;20447;-55
2023/10/30 11:15:07;;;;;;;8.03;1.97;;;15.20;99.90;;;;;;5040579;28;20488;-54
2023/10/30 11:17:36;;;;;;;7.03;1.50;;;15.20;99.90;;;;;;5047544;28;20500;-55
2023/10/30 11:20:07;;;;;;;5.20;2.27;;;15.20;99.90;;;;;;5032263;28;20492;-55
2023/10/30 11:22:38;;;;;;;3.80;1.60;;;15.30;99.90;;;;;;5029408;28;20835;-55
2023/10/30 11:25:05;;;;;;;7.70;1.67;;;15.30;99.20;;;;;;5040505;28;20572;-56
2023/10/30 11:27:36;;;;;;;4.37;1.70;;;15.40;99.90;;;;;;5038898;28;20445;-56
2023/10/30 11:30:06;;;;;;;7.30;1.60;;;15.40;99.90;;;;;;5031870;28;20565;-56
2023/10/30 11:32:38;;;;;;;8.40;1.70;;;15.40;29.90;;;;;;5031010;28;20467;-56
2023/10/30 11:35:05;;;;;;;6.40;1.97;;;15.40;82.50;;;;;;5031747;28;20495;-56
2023/10/30 11:37:32;;;;;;;8.77;2.03;;;15.40;22.70;;;;;;5031178;28;20475;-56
2023/10/30 11:40:02;;;;;;;4.30;1.73;;;15.50;20.60;;;;;;5038708;28;20450;-55
2023/10/30 11:42:33;;;;;;;5.07;1.40;;;15.50;28.20;;;;;;5024221;28;20515;-55
2023/10/30 11:45:21;;;;;;;8.70;2.07;;;15.50;22.70;;;;;;5032063;28;20463;-55
2023/10/30 11:47:57;;;;;;;7.97;1.53;;;15.50;32.80;;;;;;5026762;28;20442;-55
2023/10/30 11:50:26;;;;;;;5.07;1.63;;;15.60;23.50;;;;;;5031780;28;20482;-56
2023/10/30 11:52:53;;;;;;;8.40;1.57;;;15.60;40.80;;;;;;5031893;28;20443;-55
2023/10/30 11:55:20;;;;;;;5.60;1.83;;;15.90;58.60;;;;;;5031603;28;20502;-56
2023/10/30 11:57:47;;;;;;;13.10;2.17;;;16.00;48.00;;;;;;5037726;28;20446;-56
2023/10/30 12:00:15;;;;;;;9.43;1.90;;;16.10;44.60;;;;;;5051162;28;20568;-54
2023/10/30 12:02:42;;;;;;;4.20;1.53;;;16.10;61.80;;;;;;5037806;28;20478;-54
2023/10/30 12:05:11;;;;;;;3.57;1.63;;;16.00;59.20;;;;;;5034991;28;20495;-53
2023/10/30 12:07:39;;;;;;;5.43;1.40;;;16.10;49.20;;;;;;5031045;28;20823;-55
2023/10/30 12:10:06;;;;;;;5.43;1.60;;;16.10;56.00;;;;;;5040040;28;20482;-54
2023/10/30 12:12:33;;;;;;;3.03;1.47;;;16.20;55.30;;;;;;5030525;28;20459;-54
2023/10/30 12:14:59;;;;;;;8.10;1.63;;;16.50;56.40;;;;;;5039685;28;20469;-54
2023/10/30 12:17:27;;;;;;;5.70;1.30;;;17.00;69.80;;;;;;5039702;28;20952;-54
2023/10/30 12:19:54;;;;;;;3.70;1.87;;;17.20;94.30;;;;;;5030340;28;20435;-54
2023/10/30 12:22:22;;;;;;;7.00;2.00;;;17.10;98.10;;;;;;5042458;28;20442;-53
2023/10/30 12:24:49;;;;;;;10.20;2.43;;;16.90;91.80;;;;;;5037179;28;20459;-54
2023/10/30 12:27:20;;;;;;;5.37;1.50;;;16.70;82.70;;;;;;5030381;28;20827;-54
2023/10/30 12:29:46;;;;;;;6.80;1.73;;;16.60;75.20;;;;;;5039861;28;20536;-54
2023/10/30 12:32:13;;;;;;;3.87;1.40;;;16.40;61.60;;;;;;5049968;28;20813;-54
2023/10/30 12:34:40;;;;;;;6.40;2.00;;;16.30;66.10;;;;;;5037954;28;20479;-54
2023/10/30 12:37:20;;;;;;;4.80;1.40;;;16.20;59.30;;;;;;5031546;28;20439;-53
2023/10/30 12:40:07;;;;;;;10.57;2.00;;;16.20;60.80;;;;;;5036825;28;20453;-53
2023/10/30 12:42:35;;;;;;;6.03;1.50;;;16.40;49.10;;;;;;5024615;28;20513;-55
2023/10/30 12:45:07;;;;;;;5.17;1.57;;;16.50;59.10;;;;;;5039762;28;20512;-55
2023/10/30 12:47:34;;;;;;;5.20;1.60;;;16.60;84.20;;;;;;5024432;28;20431;-54